createdAt,value
2016-12-06T00:00:43.991Z,18.91
2016-12-06T00:01:43.933Z,18.91
2016-12-06T00:02:43.868Z,18.94
2016-12-06T00:03:43.893Z,18.91
2016-12-06T00:04:43.923Z,18.85
2016-12-06T00:05:43.948Z,18.98
2016-12-06T00:06:43.976Z,18.96
2016-12-06T00:07:44.003Z,18.88
2016-12-06T00:08:43.939Z,18.94
2016-12-06T00:09:43.776Z,18.96
2016-12-06T00:10:43.625Z,18.93
2016-12-06T00:11:43.660Z,18.94
2016-12-06T00:12:43.594Z,18.93
2016-12-06T00:13:43.624Z,19.08
2016-12-06T00:14:43.558Z,19.05
2016-12-06T00:15:43.402Z,19.09
2016-12-06T00:16:43.345Z,19.07
2016-12-06T00:17:43.280Z,19.08
2016-12-06T00:18:43.122Z,19.12
2016-12-06T00:19:43.062Z,19.09
2016-12-06T00:20:43.119Z,18.94
2016-12-06T00:21:42.966Z,18.89
2016-12-06T00:22:42.901Z,18.89
2016-12-06T00:23:42.847Z,18.89
2016-12-06T00:24:42.702Z,18.93
2016-12-06T00:25:42.729Z,18.97
2016-12-06T00:26:42.665Z,19
2016-12-06T00:27:42.697Z,19.09
2016-12-06T00:28:42.725Z,18.96
2016-12-06T00:29:42.752Z,19.07
2016-12-06T00:30:42.697Z,19.01
2016-12-06T00:31:42.725Z,19.07
2016-12-06T00:32:42.767Z,19.05
2016-12-06T00:33:42.703Z,19.04
2016-12-06T00:34:42.637Z,18.93
2016-12-06T00:35:42.577Z,18.88
2016-12-06T00:36:42.604Z,18.97
2016-12-06T00:37:42.449Z,19
2016-12-06T00:38:42.680Z,18.94
2016-12-06T00:39:43.018Z,18.98
2016-12-06T00:40:42.957Z,18.89
2016-12-06T00:41:42.987Z,18.98
2016-12-06T00:42:43.022Z,18.93
2016-12-06T00:45:03.305Z,18.97
2016-12-06T00:46:03.444Z,18.91
2016-12-06T00:47:03.575Z,18.89
2016-12-06T00:48:03.760Z,18.93
2016-12-06T00:49:03.789Z,18.89
2016-12-06T00:50:03.726Z,18.81
2016-12-06T00:51:03.476Z,18.79
2016-12-06T00:52:03.504Z,18.82
2016-12-06T00:53:03.531Z,18.71
2016-12-06T00:54:03.467Z,18.76
2016-12-06T00:55:03.498Z,18.68
2016-12-06T00:56:03.523Z,18.75
2016-12-06T00:57:03.546Z,18.75
2016-12-06T00:58:03.484Z,18.68
2016-12-06T00:59:03.421Z,18.67
2016-12-06T01:00:03.354Z,18.71
2016-12-06T01:01:03.197Z,18.7
2016-12-06T01:02:03.130Z,18.71
2016-12-06T01:03:02.973Z,18.7
2016-12-06T01:04:02.726Z,18.75
2016-12-06T01:05:02.755Z,18.74
2016-12-06T01:06:02.689Z,18.76
2016-12-06T01:07:02.623Z,18.7
2016-12-06T01:08:02.465Z,18.67
2016-12-06T01:09:02.491Z,18.79
2016-12-06T01:10:02.434Z,18.82
2016-12-06T01:11:02.461Z,18.68
2016-12-06T01:12:02.491Z,18.7
2016-12-06T01:13:02.427Z,18.74
2016-12-06T01:14:02.452Z,18.74
2016-12-06T01:15:02.389Z,18.76
2016-12-06T01:16:02.325Z,18.68
2016-12-06T01:17:02.267Z,18.74
2016-12-06T01:18:02.203Z,18.81
2016-12-06T01:19:02.143Z,18.71
2016-12-06T01:20:02.083Z,18.66
2016-12-06T01:21:02.108Z,18.66
2016-12-06T01:22:02.133Z,18.75
2016-12-06T01:23:01.975Z,18.81
2016-12-06T01:24:01.914Z,18.76
2016-12-06T01:25:01.852Z,18.78
2016-12-06T01:26:01.877Z,18.75
2016-12-06T01:27:01.816Z,18.75
2016-12-06T01:28:01.660Z,18.79
2016-12-06T01:29:01.684Z,18.76
2016-12-06T01:30:01.622Z,18.85
2016-12-06T01:31:01.466Z,18.91
2016-12-06T01:32:01.400Z,18.85
2016-12-06T01:33:01.336Z,18.94
2016-12-06T01:34:01.181Z,18.94
2016-12-06T01:35:01.208Z,18.83
2016-12-06T01:36:01.144Z,18.83
2016-12-06T01:37:01.085Z,18.85
2016-12-06T01:38:01.118Z,18.83
2016-12-06T01:39:01.142Z,18.82
2016-12-06T01:40:01.172Z,18.7
2016-12-06T01:41:01.110Z,18.78
2016-12-06T01:42:01.136Z,18.74
2016-12-06T01:43:01.072Z,18.75
2016-12-06T01:44:01.104Z,18.75
2016-12-06T01:45:01.033Z,18.78
2016-12-06T01:46:00.969Z,18.75
2016-12-06T01:47:00.994Z,18.76
2016-12-06T01:48:01.020Z,18.74
2016-12-06T01:49:00.862Z,18.76
2016-12-06T01:50:00.890Z,18.7
2016-12-06T01:51:00.823Z,18.67
2016-12-06T01:52:00.666Z,18.64
2016-12-06T01:53:00.604Z,18.68
2016-12-06T01:54:00.541Z,18.76
2016-12-06T01:55:00.568Z,18.71
2016-12-06T01:56:00.504Z,18.79
2016-12-06T01:57:00.440Z,18.71
2016-12-06T01:58:00.376Z,18.81
2016-12-06T01:59:00.312Z,18.74
2016-12-06T02:00:00.154Z,18.7
2016-12-06T02:01:00.180Z,18.75
2016-12-06T02:02:00.205Z,18.71
2016-12-06T02:03:00.050Z,18.71
2016-12-06T02:03:59.986Z,18.7
2016-12-06T02:05:00.013Z,18.79
2016-12-06T02:05:59.947Z,18.79
2016-12-06T02:06:59.885Z,18.76
2016-12-06T02:07:59.911Z,18.67
2016-12-06T02:08:59.851Z,18.7
2016-12-06T02:09:59.696Z,18.71
2016-12-06T02:10:59.723Z,18.66
2016-12-06T02:11:59.685Z,18.71
2016-12-06T02:12:59.621Z,18.68
2016-12-06T02:13:59.464Z,18.71
2016-12-06T02:14:59.395Z,18.61
2016-12-06T02:15:59.331Z,18.68
2016-12-06T02:16:59.354Z,18.58
2016-12-06T02:17:59.197Z,18.7
2016-12-06T02:18:59.226Z,18.67
2016-12-06T02:19:59.254Z,18.63
2016-12-06T02:20:59.279Z,18.66
2016-12-06T02:21:59.304Z,18.66
2016-12-06T02:22:59.330Z,18.57
2016-12-06T02:23:59.268Z,18.66
2016-12-06T02:24:59.111Z,18.6
2016-12-06T02:25:59.051Z,18.61
2016-12-06T02:26:58.898Z,18.68
2016-12-06T02:27:58.647Z,18.64
2016-12-06T02:28:58.675Z,18.63
2016-12-06T02:29:58.700Z,18.61
2016-12-06T02:30:58.640Z,18.48
2016-12-06T02:31:58.663Z,18.57
2016-12-06T02:32:58.602Z,18.56
2016-12-06T02:33:58.440Z,18.42
2016-12-06T02:34:58.382Z,18.48
2016-12-06T02:35:58.412Z,18.52
2016-12-06T02:36:58.346Z,18.52
2016-12-06T02:37:58.191Z,18.46
2016-12-06T02:38:58.219Z,18.48
2016-12-06T02:39:58.244Z,18.41
2016-12-06T02:40:58.086Z,18.49
2016-12-06T02:41:58.113Z,18.49
2016-12-06T02:42:58.139Z,18.46
2016-12-06T02:43:58.075Z,18.57
2016-12-06T02:44:58.101Z,18.51
2016-12-06T02:45:58.041Z,18.58
2016-12-06T02:46:58.065Z,18.56
2016-12-06T02:47:58.002Z,18.57
2016-12-06T02:48:57.941Z,18.57
2016-12-06T02:49:57.872Z,18.54
2016-12-06T02:50:57.808Z,18.61
2016-12-06T02:51:57.835Z,18.57
2016-12-06T02:52:57.863Z,18.56
2016-12-06T02:53:57.799Z,18.51
2016-12-06T02:54:57.824Z,18.51
2016-12-06T02:55:57.669Z,18.46
2016-12-06T02:56:57.512Z,18.46
2016-12-06T02:57:57.379Z,18.45
2016-12-06T02:58:57.381Z,18.48
2016-12-06T02:59:57.407Z,18.52
2016-12-06T03:00:57.343Z,18.52
2016-12-06T03:01:57.368Z,18.45
2016-12-06T03:02:57.306Z,18.41
2016-12-06T03:03:57.243Z,18.51
2016-12-06T03:04:57.181Z,18.52
2016-12-06T03:05:57.207Z,18.49
2016-12-06T03:06:57.144Z,18.48
2016-12-06T03:07:57.081Z,18.52
2016-12-06T03:08:56.925Z,18.54
2016-12-06T03:09:56.857Z,18.56
2016-12-06T03:10:56.795Z,18.54
2016-12-06T03:11:56.734Z,18.46
2016-12-06T03:12:56.574Z,18.42
2016-12-06T03:13:56.510Z,18.48
2016-12-06T03:14:56.355Z,18.38
2016-12-06T03:15:56.382Z,18.42
2016-12-06T03:16:56.318Z,18.34
2016-12-06T03:17:56.348Z,18.36
2016-12-06T03:18:56.373Z,18.3
2016-12-06T03:19:56.398Z,18.34
2016-12-06T03:20:56.330Z,18.24
2016-12-06T03:21:56.357Z,18.24
2016-12-06T03:22:56.383Z,18.26
2016-12-06T03:23:56.316Z,18.31
2016-12-06T03:24:56.251Z,18.24
2016-12-06T03:25:56.187Z,18.24
2016-12-06T03:26:56.123Z,18.27
2016-12-06T03:27:55.876Z,18.34
2016-12-06T03:28:55.903Z,18.26
2016-12-06T03:29:55.931Z,18.36
2016-12-06T03:30:55.865Z,18.33
2016-12-06T03:31:55.705Z,18.36
2016-12-06T03:32:55.728Z,18.38
2016-12-06T03:33:55.666Z,18.38
2016-12-06T03:34:55.692Z,18.3
2016-12-06T03:35:55.628Z,18.34
2016-12-06T03:36:55.653Z,18.31
2016-12-06T03:37:55.683Z,18.34
2016-12-06T03:38:55.616Z,18.31
2016-12-06T03:39:55.646Z,18.3
2016-12-06T03:40:55.674Z,18.28
2016-12-06T03:41:55.699Z,18.28
2016-12-06T03:42:55.544Z,18.24
2016-12-06T03:43:55.573Z,18.27
2016-12-06T03:44:55.512Z,18.2
2016-12-06T03:45:55.537Z,18.18
2016-12-06T03:46:55.565Z,18.18
2016-12-06T03:47:55.589Z,18.12
2016-12-06T03:48:55.615Z,18.08
2016-12-06T03:49:55.549Z,18.13
2016-12-06T03:50:55.578Z,18.02
2016-12-06T03:51:55.606Z,18.02
2016-12-06T03:52:55.540Z,18.03
2016-12-06T03:53:55.478Z,18.02
2016-12-06T03:54:55.503Z,18.01
2016-12-06T03:55:55.529Z,18.09
2016-12-06T03:56:55.556Z,17.97
2016-12-06T03:57:55.401Z,17.99
2016-12-06T03:58:55.424Z,18.12
2016-12-06T03:59:55.357Z,18.15
2016-12-06T04:00:55.297Z,18.13
2016-12-06T04:01:55.142Z,18.13
2016-12-06T04:02:55.168Z,18.09
2016-12-06T04:03:55.108Z,18.18
2016-12-06T04:04:55.131Z,18.11
2016-12-06T04:05:55.071Z,18.24
2016-12-06T04:06:55.099Z,18.12
2016-12-06T04:07:55.126Z,18.24
2016-12-06T04:08:55.156Z,18.12
2016-12-06T04:09:55.181Z,18.26
2016-12-06T04:10:55.116Z,18.12
2016-12-06T04:11:55.056Z,18.2
2016-12-06T04:12:55.084Z,18.18
2016-12-06T04:13:55.113Z,18.15
2016-12-06T04:14:55.141Z,18.23
2016-12-06T04:15:55.170Z,18.2
2016-12-06T04:16:55.198Z,18.17
2016-12-06T04:17:55.226Z,18.21
2016-12-06T04:18:55.253Z,18.26
2016-12-06T04:19:55.280Z,18.12
2016-12-06T04:20:55.308Z,18.13
2016-12-06T04:21:55.246Z,18.13
2016-12-06T04:22:55.272Z,18.13
2016-12-06T04:23:55.300Z,18.13
2016-12-06T04:24:55.327Z,18.23
2016-12-06T04:25:55.265Z,18.15
2016-12-06T04:26:55.201Z,18.15
2016-12-06T04:27:55.677Z,18.27
2016-12-06T04:28:55.531Z,18.27
2016-12-06T04:29:55.556Z,18.34
2016-12-06T04:30:55.497Z,18.23
2016-12-06T04:31:55.522Z,18.18
2016-12-06T04:32:55.462Z,18.18
2016-12-06T04:33:55.488Z,18.21
2016-12-06T04:34:55.424Z,18.17
2016-12-06T04:35:55.364Z,18.13
2016-12-06T04:36:55.389Z,18.15
2016-12-06T04:37:55.329Z,18.13
2016-12-06T04:38:55.353Z,18.01
2016-12-06T04:39:55.200Z,17.93
2016-12-06T04:40:55.228Z,18.01
2016-12-06T04:41:55.068Z,18.06
2016-12-06T04:42:55.002Z,18.08
2016-12-06T04:43:54.944Z,18.06
2016-12-06T04:44:54.976Z,18.03
2016-12-06T04:45:54.997Z,17.97
2016-12-06T04:46:54.849Z,17.96
2016-12-06T04:47:54.698Z,18.03
2016-12-06T04:48:54.633Z,17.97
2016-12-06T04:49:54.568Z,18.02
2016-12-06T04:50:54.502Z,18.02
2016-12-06T04:51:54.527Z,17.94
2016-12-06T04:52:54.369Z,17.97
2016-12-06T04:53:54.394Z,17.96
2016-12-06T04:54:54.422Z,17.88
2016-12-06T04:55:54.450Z,17.94
2016-12-06T04:56:54.480Z,17.91
2016-12-06T04:57:54.413Z,17.87
2016-12-06T04:58:54.441Z,17.84
2016-12-06T04:59:54.374Z,17.87
2016-12-06T05:00:54.400Z,17.81
2016-12-06T05:01:54.335Z,17.9
2016-12-06T05:02:54.361Z,17.71
2016-12-06T05:03:54.297Z,17.81
2016-12-06T05:04:54.233Z,17.86
2016-12-06T05:05:54.258Z,17.87
2016-12-06T05:06:54.288Z,17.83
2016-12-06T05:07:54.224Z,17.86
2016-12-06T05:08:54.252Z,17.73
2016-12-06T05:09:54.185Z,17.83
2016-12-06T05:10:54.031Z,17.78
2016-12-06T05:11:53.964Z,17.81
2016-12-06T05:12:53.903Z,17.78
2016-12-06T05:13:53.930Z,17.69
2016-12-06T05:14:53.956Z,17.72
2016-12-06T05:15:53.892Z,17.71
2016-12-06T05:16:53.823Z,17.69
2016-12-06T05:17:53.764Z,17.72
2016-12-06T05:18:53.789Z,17.66
2016-12-06T05:19:53.727Z,17.68
2016-12-06T05:20:53.755Z,17.68
2016-12-06T05:21:53.782Z,17.72
2016-12-06T05:22:53.808Z,17.78
2016-12-06T05:23:53.744Z,17.69
2016-12-06T05:24:53.773Z,17.71
2016-12-06T05:25:53.707Z,17.79
2016-12-06T05:26:53.735Z,17.79
2016-12-06T05:27:53.762Z,17.69
2016-12-06T05:28:53.607Z,17.79
2016-12-06T05:29:53.543Z,17.79
2016-12-06T05:30:53.570Z,17.88
2016-12-06T05:31:53.420Z,17.79
2016-12-06T05:32:53.356Z,17.84
2016-12-06T05:33:53.381Z,17.81
2016-12-06T05:34:53.407Z,17.78
2016-12-06T05:35:53.160Z,17.71
2016-12-06T05:36:53.189Z,17.68
2016-12-06T05:37:53.217Z,17.66
2016-12-06T05:38:53.245Z,17.66
2016-12-06T05:39:53.272Z,17.72
2016-12-06T05:40:53.299Z,17.68
2016-12-06T05:41:53.327Z,17.59
2016-12-06T05:42:53.354Z,17.54
2016-12-06T05:43:53.291Z,17.56
2016-12-06T05:44:53.316Z,17.54
2016-12-06T05:45:53.346Z,17.62
2016-12-06T05:46:53.373Z,17.62
2016-12-06T05:47:53.307Z,17.65
2016-12-06T05:48:53.335Z,17.68
2016-12-06T05:49:53.362Z,17.68
2016-12-06T05:50:53.296Z,17.68
2016-12-06T05:51:53.323Z,17.71
2016-12-06T05:52:53.258Z,17.69
2016-12-06T05:53:53.287Z,17.73
2016-12-06T05:54:53.223Z,17.78
2016-12-06T05:55:53.249Z,17.75
2016-12-06T05:56:53.095Z,17.83
2016-12-06T05:57:53.123Z,17.78
2016-12-06T05:58:53.150Z,17.79
2016-12-06T05:59:53.180Z,17.73
2016-12-06T06:00:53.211Z,17.71
2016-12-06T06:01:53.233Z,17.69
2016-12-06T06:02:53.073Z,17.69
2016-12-06T06:03:53.103Z,17.69
2016-12-06T06:04:53.128Z,17.69
2016-12-06T06:05:53.067Z,17.69
2016-12-06T06:06:53.006Z,17.71
2016-12-06T06:07:53.030Z,17.63
2016-12-06T06:08:53.057Z,17.68
2016-12-06T06:09:52.991Z,17.59
2016-12-06T06:10:52.925Z,17.62
2016-12-06T06:11:52.955Z,17.65
2016-12-06T06:12:52.982Z,17.49
2016-12-06T06:13:53.010Z,17.52
2016-12-06T06:14:52.848Z,17.52
2016-12-06T06:15:52.796Z,17.52
2016-12-06T06:16:52.811Z,17.38
2016-12-06T06:17:52.836Z,17.38
2016-12-06T06:18:52.775Z,17.37
2016-12-06T06:19:52.800Z,17.41
2016-12-06T06:20:52.734Z,17.43
2016-12-06T06:21:52.760Z,17.37
2016-12-06T06:22:52.623Z,17.3
2016-12-06T06:23:52.540Z,17.34
2016-12-06T06:24:52.565Z,17.34
2016-12-06T06:25:52.320Z,17.37
2016-12-06T06:26:52.165Z,17.34
2016-12-06T06:27:52.193Z,17.32
2016-12-06T06:28:52.129Z,17.28
2016-12-06T06:29:52.156Z,17.31
2016-12-06T06:30:52.092Z,17.31
2016-12-06T06:31:52.119Z,17.27
2016-12-06T06:32:52.143Z,17.25
2016-12-06T06:33:52.170Z,17.3
2016-12-06T06:34:52.197Z,17.22
2016-12-06T06:35:52.136Z,17.25
2016-12-06T06:36:52.161Z,17.31
2016-12-06T06:37:52.097Z,17.3
2016-12-06T06:38:52.124Z,17.35
2016-12-06T06:39:52.152Z,17.28
2016-12-06T06:40:52.180Z,17.28
2016-12-06T06:41:52.021Z,17.24
2016-12-06T06:42:51.953Z,17.25
2016-12-06T06:43:51.981Z,17.34
2016-12-06T06:44:52.011Z,17.3
2016-12-06T06:45:52.036Z,17.32
2016-12-06T06:46:51.974Z,17.25
2016-12-06T06:47:51.906Z,17.31
2016-12-06T06:48:51.933Z,17.19
2016-12-06T06:49:51.785Z,17.25
2016-12-06T06:50:51.630Z,17.25
2016-12-06T06:51:51.659Z,17.25
2016-12-06T06:52:51.687Z,17.2
2016-12-06T06:53:51.712Z,17.25
2016-12-06T06:54:51.648Z,17.24
2016-12-06T06:55:51.491Z,17.19
2016-12-06T06:56:51.518Z,17.14
2016-12-06T06:57:51.545Z,17.2
2016-12-06T06:58:51.571Z,17.19
2016-12-06T06:59:51.598Z,17.22
2016-12-06T07:00:51.539Z,17.24
2016-12-06T07:01:51.477Z,17.19
2016-12-06T07:02:51.320Z,17.25
2016-12-06T07:03:51.258Z,17.27
2016-12-06T07:04:51.098Z,17.25
2016-12-06T07:05:50.942Z,17.31
2016-12-06T07:06:50.875Z,17.27
2016-12-06T07:07:50.815Z,17.31
2016-12-06T07:08:50.752Z,17.3
2016-12-06T07:09:50.778Z,17.19
2016-12-06T07:10:50.806Z,17.2
2016-12-06T07:11:50.740Z,17.2
2016-12-06T07:12:50.675Z,17.2
2016-12-06T07:13:50.701Z,17.19
2016-12-06T07:14:50.548Z,17.24
2016-12-06T07:15:50.573Z,17.25
2016-12-06T07:16:50.511Z,17.24
2016-12-06T07:17:50.535Z,17.31
2016-12-06T07:18:50.468Z,17.28
2016-12-06T07:19:50.311Z,17.25
2016-12-06T07:20:50.338Z,17.17
2016-12-06T07:21:50.366Z,17.19
2016-12-06T07:22:50.395Z,17.25
2016-12-06T07:23:50.331Z,17.13
2016-12-06T07:24:50.556Z,17.12
2016-12-06T07:25:50.403Z,17.17
2016-12-06T07:26:50.430Z,17.07
2016-12-06T07:27:50.366Z,17.09
2016-12-06T07:28:50.298Z,17.27
2016-12-06T07:29:50.764Z,17.19
2016-12-06T07:30:50.698Z,17.19
2016-12-06T07:31:50.542Z,17.16
2016-12-06T07:32:50.484Z,17.2
2016-12-06T07:33:50.417Z,17.27
2016-12-06T07:34:50.445Z,17.2
2016-12-06T07:35:50.287Z,17.17
2016-12-06T07:36:50.315Z,17.22
2016-12-06T07:37:50.253Z,17.2
2016-12-06T07:38:50.191Z,17.16
2016-12-06T07:39:50.129Z,17.12
2016-12-06T07:40:50.069Z,17.09
2016-12-06T07:41:50.092Z,17.09
2016-12-06T07:42:50.121Z,17.12
2016-12-06T07:43:50.056Z,17.1
2016-12-06T07:44:50.084Z,17.07
2016-12-06T07:45:50.111Z,17.16
2016-12-06T07:46:50.047Z,17.2
2016-12-06T07:47:50.071Z,17.27
2016-12-06T07:48:50.004Z,17.22
2016-12-06T07:49:49.941Z,17.14
2016-12-06T07:50:49.965Z,17.13
2016-12-06T07:51:49.993Z,17.14
2016-12-06T07:52:50.019Z,17.1
2016-12-06T07:53:50.044Z,17.07
2016-12-06T07:54:49.978Z,17.24
2016-12-06T07:55:49.918Z,17.22
2016-12-06T07:56:49.856Z,17.17
2016-12-06T07:57:49.882Z,17.22
2016-12-06T07:58:49.816Z,17.24
2016-12-06T07:59:49.754Z,17.3
2016-12-06T08:00:49.781Z,17.27
2016-12-06T08:01:49.718Z,17.31
2016-12-06T08:02:49.558Z,17.16
2016-12-06T08:03:49.398Z,17.1
2016-12-06T08:04:49.240Z,17.07
2016-12-06T08:05:49.181Z,17.13
2016-12-06T08:06:49.028Z,17.09
2016-12-06T08:07:48.962Z,17.06
2016-12-06T08:08:48.989Z,17.12
2016-12-06T08:09:48.925Z,17.09
2016-12-06T08:10:48.955Z,16.99
2016-12-06T08:11:48.982Z,17.09
2016-12-06T08:12:49.008Z,17.12
2016-12-06T08:13:48.953Z,17.1
2016-12-06T08:14:48.980Z,17.14
2016-12-06T08:15:48.916Z,17.12
2016-12-06T08:16:48.942Z,17.13
2016-12-06T08:17:48.967Z,17.07
2016-12-06T08:18:48.901Z,17.1
2016-12-06T08:19:48.926Z,17.13
2016-12-06T08:20:48.862Z,17.1
2016-12-06T08:21:48.796Z,17.19
2016-12-06T08:22:48.821Z,17.19
2016-12-06T08:23:48.852Z,17.16
2016-12-06T08:24:48.874Z,17.3
2016-12-06T08:25:48.718Z,17.24
2016-12-06T08:26:48.744Z,17.19
2016-12-06T08:27:48.703Z,17.17
2016-12-06T08:28:48.642Z,17.22
2016-12-06T08:29:48.669Z,17.09
2016-12-06T08:30:48.418Z,17.14
2016-12-06T08:31:48.264Z,17.06
2016-12-06T08:32:48.289Z,17.13
2016-12-06T08:33:48.226Z,17.06
2016-12-06T08:34:48.253Z,17.12
2016-12-06T08:35:48.275Z,17.12
2016-12-06T08:36:48.117Z,17.24
2016-12-06T08:37:48.053Z,17.2
2016-12-06T08:38:47.990Z,17.24
2016-12-06T08:39:48.017Z,17.14
2016-12-06T08:40:48.047Z,17.25
2016-12-06T08:41:47.978Z,17.27
2016-12-06T08:42:47.823Z,17.38
2016-12-06T08:43:47.848Z,17.37
2016-12-06T08:44:47.693Z,17.31
2016-12-06T08:45:47.627Z,17.34
2016-12-06T08:46:47.652Z,17.38
2016-12-06T08:47:47.677Z,17.34
2016-12-06T08:48:47.703Z,17.38
2016-12-06T08:49:47.638Z,17.43
2016-12-06T08:50:47.665Z,17.39
2016-12-06T08:51:47.695Z,17.46
2016-12-06T08:52:47.626Z,17.56
2016-12-06T08:53:47.654Z,17.66
2016-12-06T08:54:47.592Z,17.69
2016-12-06T08:55:47.617Z,17.78
2016-12-06T08:56:47.556Z,17.94
2016-12-06T08:57:47.399Z,18.08
2016-12-06T08:58:47.339Z,18.21
2016-12-06T08:59:47.371Z,18.48
2016-12-06T09:00:47.401Z,18.71
2016-12-06T09:01:47.339Z,19.01
2016-12-06T09:02:47.280Z,19.2
2016-12-06T09:03:47.122Z,19.53
2016-12-06T09:04:47.061Z,19.75
2016-12-06T09:05:47.090Z,19.89
2016-12-06T09:06:47.120Z,20.12
2016-12-06T09:07:47.150Z,20.19
2016-12-06T09:08:47.090Z,20.19
2016-12-06T09:09:47.124Z,20.27
2016-12-06T09:10:47.154Z,20.34
2016-12-06T09:11:47.003Z,20.33
2016-12-06T09:12:47.038Z,20.48
2016-12-06T09:13:47.068Z,20.46
2016-12-06T09:14:47.010Z,20.63
2016-12-06T09:15:47.043Z,20.75
2016-12-06T09:16:46.896Z,20.85
2016-12-06T09:17:46.927Z,20.97
2016-12-06T09:18:46.871Z,21.13
2016-12-06T09:19:46.901Z,21.26
2016-12-06T09:20:46.842Z,21.32
2016-12-06T09:21:46.876Z,21.5
2016-12-06T09:22:46.908Z,21.63
2016-12-06T09:23:46.945Z,21.6
2016-12-06T09:24:46.979Z,21.65
2016-12-06T09:25:46.923Z,21.66
2016-12-06T09:26:46.870Z,21.69
2016-12-06T09:27:46.905Z,21.91
2016-12-06T09:28:46.941Z,21.91
2016-12-06T09:29:46.882Z,22.06
2016-12-06T09:30:46.824Z,22.16
2016-12-06T09:31:46.859Z,22.07
2016-12-06T09:32:46.804Z,21.94
2016-12-06T09:33:46.745Z,21.91
2016-12-06T09:34:46.779Z,22.06
2016-12-06T09:35:46.813Z,22.27
2016-12-06T09:36:46.848Z,22.51
2016-12-06T09:37:46.697Z,22.58
2016-12-06T09:38:46.727Z,22.52
2016-12-06T09:39:46.764Z,22.58
2016-12-06T09:40:46.707Z,22.88
2016-12-06T09:41:46.743Z,23.25
2016-12-06T09:42:46.686Z,23.29
2016-12-06T09:43:46.634Z,23.45
2016-12-06T09:44:46.666Z,23.7
2016-12-06T09:45:46.518Z,23.91
2016-12-06T09:46:46.465Z,24.21
2016-12-06T09:47:46.500Z,24.41
2016-12-06T09:48:46.536Z,24.53
2016-12-06T09:49:46.570Z,24.47
2016-12-06T09:50:46.518Z,24.58
2016-12-06T09:51:46.458Z,24.68
2016-12-06T09:52:46.406Z,24.76
2016-12-06T09:53:46.349Z,25.04
2016-12-06T09:54:46.292Z,25.03
2016-12-06T09:55:46.237Z,25.09
2016-12-06T09:56:46.274Z,25.06
2016-12-06T09:57:46.313Z,25
2016-12-06T09:58:46.349Z,24.96
2016-12-06T09:59:46.389Z,25
2016-12-06T10:00:46.423Z,25.15
2016-12-06T10:01:46.368Z,25.31
2016-12-06T10:02:46.316Z,25.36
2016-12-06T10:03:46.261Z,25.4
2016-12-06T10:04:46.300Z,25.45
2016-12-06T10:05:46.337Z,25.63
2016-12-06T10:06:46.378Z,25.63
2016-12-06T10:07:46.412Z,25.73
2016-12-06T10:08:46.362Z,25.9
2016-12-06T10:09:46.218Z,25.98
2016-12-06T10:10:46.166Z,25.83
2016-12-06T10:11:46.211Z,25.81
2016-12-06T10:12:46.153Z,25.56
2016-12-06T10:13:46.185Z,25.56
2016-12-06T10:14:46.041Z,25.88
2016-12-06T10:15:46.077Z,25.9
2016-12-06T10:16:46.116Z,25.67
2016-12-06T10:17:46.063Z,25.68
2016-12-06T10:18:46.102Z,25.63
2016-12-06T10:19:46.144Z,25.55
2016-12-06T10:20:46.091Z,25.55
2016-12-06T10:21:46.128Z,25.68
2016-12-06T10:22:46.164Z,25.83
2016-12-06T10:23:46.204Z,25.56
2016-12-06T10:24:46.244Z,25.53
2016-12-06T10:25:46.101Z,25.56
2016-12-06T10:26:46.051Z,25.59
2016-12-06T10:27:45.994Z,25.63
2016-12-06T10:28:45.944Z,25.53
2016-12-06T10:29:45.982Z,25.45
2016-12-06T10:30:45.928Z,25.04
2016-12-06T10:31:45.781Z,24.63
2016-12-06T10:32:45.724Z,24.65
2016-12-06T10:33:45.760Z,24.76
2016-12-06T10:34:45.706Z,24.76
2016-12-06T10:35:45.650Z,24.68
2016-12-06T10:36:45.595Z,24.71
2016-12-06T10:37:45.537Z,24.45
2016-12-06T10:38:45.496Z,24.25
2016-12-06T10:39:45.528Z,24.33
2016-12-06T10:40:45.378Z,24.47
2016-12-06T10:41:45.231Z,24.65
2016-12-06T10:42:45.173Z,24.76
2016-12-06T10:43:45.025Z,24.91
2016-12-06T10:44:45.059Z,25.21
2016-12-06T10:45:45.001Z,25.71
2016-12-06T10:46:44.851Z,25.96
2016-12-06T10:47:44.800Z,26.24
2016-12-06T10:48:44.746Z,26.58
2016-12-06T10:49:44.780Z,26.95
2016-12-06T10:50:44.819Z,27.05
2016-12-06T10:51:44.856Z,27.26
2016-12-06T10:52:44.801Z,27.41
2016-12-06T10:53:44.746Z,27.66
2016-12-06T10:54:44.693Z,27.73
2016-12-06T10:55:44.639Z,27.95
2016-12-06T10:56:44.581Z,27.97
2016-12-06T10:57:44.436Z,27.93
2016-12-06T10:58:44.383Z,28.09
2016-12-06T10:59:44.418Z,27.95
2016-12-06T11:00:44.456Z,27.57
2016-12-06T11:01:44.313Z,27.41
2016-12-06T11:02:44.351Z,27.44
2016-12-06T11:03:44.386Z,27.57
2016-12-06T11:04:44.331Z,27.85
2016-12-06T11:05:44.374Z,28.06
2016-12-06T11:06:44.413Z,28.31
2016-12-06T11:07:44.452Z,28.54
2016-12-06T11:08:44.488Z,28.79
2016-12-06T11:09:44.525Z,28.89
2016-12-06T11:10:44.376Z,29.15
2016-12-06T11:11:44.420Z,29.04
2016-12-06T11:12:44.456Z,28.87
2016-12-06T11:13:44.493Z,28.83
2016-12-06T11:14:44.436Z,28.72
2016-12-06T11:15:44.388Z,28.66
2016-12-06T11:16:44.329Z,28.79
2016-12-06T11:17:44.277Z,28.89
2016-12-06T11:18:44.226Z,28.77
2016-12-06T11:19:44.263Z,28.75
2016-12-06T11:20:44.209Z,28.74
2016-12-06T11:21:44.160Z,28.66
2016-12-06T11:22:44.110Z,28.56
2016-12-06T11:23:44.055Z,28.56
2016-12-06T11:24:44.090Z,28.49
2016-12-06T11:25:44.129Z,28.15
2016-12-06T11:26:44.081Z,27.7
2016-12-06T11:27:44.115Z,27.37
2016-12-06T11:28:44.065Z,27.03
2016-12-06T11:29:44.008Z,26.67
2016-12-06T11:30:43.960Z,26.53
2016-12-06T11:31:43.908Z,26.53
2016-12-06T11:32:43.850Z,26.53
2016-12-06T11:33:43.610Z,26.78
2016-12-06T11:34:43.649Z,27.19
2016-12-06T11:35:43.686Z,27.53
2016-12-06T11:36:43.725Z,27.9
2016-12-06T11:37:43.578Z,28.16
2016-12-06T11:38:43.432Z,28.35
2016-12-06T11:39:43.471Z,28.16
2016-12-06T11:40:43.510Z,27.72
2016-12-06T11:41:43.544Z,27.4
2016-12-06T11:42:43.492Z,27.53
2016-12-06T11:43:43.439Z,27.75
2016-12-06T11:44:43.288Z,28.1
2016-12-06T11:45:43.229Z,28.3
2016-12-06T11:46:43.177Z,28.37
2016-12-06T11:47:43.214Z,28.17
2016-12-06T11:48:43.252Z,28.3
2016-12-06T11:49:43.289Z,28.42
2016-12-06T11:50:43.239Z,28.46
2016-12-06T11:51:43.278Z,28.62
2016-12-06T11:52:43.225Z,28.62
2016-12-06T11:53:43.264Z,28.66
2016-12-06T11:54:43.302Z,28.74
2016-12-06T11:55:43.341Z,29.07
2016-12-06T11:56:43.380Z,29.07
2016-12-06T11:57:43.229Z,29.28
2016-12-06T11:58:43.270Z,29.29
2016-12-06T11:59:43.305Z,29.39
2016-12-06T12:00:43.158Z,29.37
2016-12-06T12:01:43.197Z,29.31
2016-12-06T12:02:43.234Z,29.31
2016-12-06T12:03:43.179Z,29.37
2016-12-06T12:04:42.949Z,29.33
2016-12-06T12:05:42.896Z,29.15
2016-12-06T12:06:42.751Z,29
2016-12-06T12:07:42.692Z,29.13
2016-12-06T12:08:42.642Z,29.36
2016-12-06T12:09:42.588Z,29.21
2016-12-06T12:10:42.435Z,28.68
2016-12-06T12:11:42.475Z,28.47
2016-12-06T12:12:42.514Z,28.31
2016-12-06T12:13:42.554Z,27.83
2016-12-06T12:14:42.410Z,27.78
2016-12-06T12:15:42.449Z,27.79
2016-12-06T12:16:42.490Z,27.88
2016-12-06T12:17:42.529Z,27.9
2016-12-06T12:18:42.473Z,28
2016-12-06T12:19:42.512Z,28.35
2016-12-06T12:20:42.462Z,28.5
2016-12-06T12:21:42.504Z,28.43
2016-12-06T12:22:42.362Z,28.44
2016-12-06T12:23:42.401Z,28.47
2016-12-06T12:24:42.438Z,28.59
2016-12-06T12:25:42.385Z,28.77
2016-12-06T12:26:42.332Z,28.83
2016-12-06T12:27:42.185Z,28.77
2016-12-06T12:28:42.224Z,28.66
2016-12-06T12:29:42.073Z,28.74
2016-12-06T12:30:42.113Z,28.94
2016-12-06T12:31:42.055Z,29.03
2016-12-06T12:32:42.000Z,28.52
2016-12-06T12:33:42.040Z,27.91
2016-12-06T12:34:41.893Z,27.32
2016-12-06T12:35:41.932Z,27.19
2016-12-06T12:36:41.969Z,27.19
2016-12-06T12:37:41.914Z,27.54
2016-12-06T12:38:41.857Z,27.63
2016-12-06T12:39:41.802Z,27.91
2016-12-06T12:40:41.747Z,27.98
2016-12-06T12:41:41.604Z,27.66
2016-12-06T12:42:41.547Z,27.42
2016-12-06T12:43:41.403Z,27.5
2016-12-06T12:44:41.442Z,27.63
2016-12-06T12:45:41.392Z,27.66
2016-12-06T12:46:41.244Z,27.49
2016-12-06T12:47:41.283Z,27.47
2016-12-06T12:48:41.228Z,27.23
2016-12-06T12:49:41.086Z,27.19
2016-12-06T12:50:40.941Z,27.2
2016-12-06T12:51:40.792Z,27.34
2016-12-06T12:52:40.736Z,27.4
2016-12-06T12:53:40.776Z,27.23
2016-12-06T12:54:40.816Z,27.07
2016-12-06T12:55:40.856Z,27.1
2016-12-06T12:56:40.894Z,27.05